Main page
METAR-TAF:

METAR-TAF

Airports :

Kushok Bakula Rimpochee Airport

Leh, India

latitude: 34-08-09N, longitude: 077-32-47E, elevation: 3256 m

METAR: missing

Time: 18:41 (13:11 UTC)

Forecast

The report was made 9 hours and 41 minutes ago, at 03:30 UTC
Forecast valid from 03 at 06 UTC to 03 at 18 UTC
Wind 2 kt from variable directions
Visibility: 6000 m
Few clouds at a height of 7000 ft
Broken clouds at a height of 12000 ft
Becoming
from 03 at 07 UTC to 03 at 11 UTC
Wind 5 kt from the West
Few clouds at a height of 7000 ft
Scattered clouds at a height of 12000 ft

TAF: VILH 030330Z 0306/0318 VRB02KT 6000 FEW070 BKN120 BECMG 0307/0311 28005KT FEW070 SCT120

Weather observations and forecasts of more than 4000 airports (METAR and TAF reports).

The available stations are represented by yellow and red dots on the map.

Hover mouse over dot to see the name of the station.

Then click to see weather observations and forecasts.

To change the map : click on the green buttons with a black cross to zoom in, on the green button with a dash to zoom out, or on the green arrows for adjacent maps.


METAR-TAF: